sensor_id;sensor_type;location;lat;lon;timestamp;pressure;altitude;pressure_sealevel;temperature;humidity
63019;BME280;49105;46.046;10.760;2022-10-16T00:01:56;96075.91;;;14.66;70.97
63019;BME280;49105;46.046;10.760;2022-10-16T00:04:28;96079.34;;;14.67;71.22
63019;BME280;49105;46.046;10.760;2022-10-16T00:06:59;96076.16;;;14.64;71.13
63019;BME280;49105;46.046;10.760;2022-10-16T00:09:34;96075.16;;;14.60;71.49
63019;BME280;49105;46.046;10.760;2022-10-16T00:11:59;96078.13;;;14.59;71.64
63019;BME280;49105;46.046;10.760;2022-10-16T00:14:34;96082.88;;;14.62;71.19
63019;BME280;49105;46.046;10.760;2022-10-16T00:17:05;96084.53;;;14.58;71.65
63019;BME280;49105;46.046;10.760;2022-10-16T00:19:31;96088.53;;;14.55;71.67
63019;BME280;49105;46.046;10.760;2022-10-16T00:21:57;96082.22;;;14.51;71.99
63019;BME280;49105;46.046;10.760;2022-10-16T00:24:28;96091.78;;;14.52;71.75
63019;BME280;49105;46.046;10.760;2022-10-16T00:29:42;96092.06;;;14.51;71.65
63019;BME280;49105;46.046;10.760;2022-10-16T00:32:07;96083.91;;;14.42;71.86
63019;BME280;49105;46.046;10.760;2022-10-16T00:34:39;96080.72;;;14.40;71.68
63019;BME280;49105;46.046;10.760;2022-10-16T00:37:05;96092.38;;;14.44;72.05
63019;BME280;49105;46.046;10.760;2022-10-16T00:39:34;96095.81;;;14.50;71.60
63019;BME280;49105;46.046;10.760;2022-10-16T00:42:00;96097.09;;;14.52;71.70
63019;BME280;49105;46.046;10.760;2022-10-16T00:44:50;96097.84;;;14.58;71.48
63019;BME280;49105;46.046;10.760;2022-10-16T00:47:21;96100.59;;;14.53;71.69
63019;BME280;49105;46.046;10.760;2022-10-16T00:49:59;96093.25;;;14.39;72.11
63019;BME280;49105;46.046;10.760;2022-10-16T00:52:36;96092.19;;;14.40;71.93
63019;BME280;49105;46.046;10.760;2022-10-16T00:55:10;96096.91;;;14.44;71.78
63019;BME280;49105;46.046;10.760;2022-10-16T00:57:44;96102.25;;;14.44;72.01
63019;BME280;49105;46.046;10.760;2022-10-16T01:00:19;96099.34;;;14.40;72.06
63019;BME280;49105;46.046;10.760;2022-10-16T01:02:53;96103.16;;;14.34;71.82
63019;BME280;49105;46.046;10.760;2022-10-16T01:05:39;96097.84;;;14.34;72.13
63019;BME280;49105;46.046;10.760;2022-10-16T01:08:20;96099.66;;;14.38;71.89
63019;BME280;49105;46.046;10.760;2022-10-16T01:11:11;96095.13;;;14.39;71.94
63019;BME280;49105;46.046;10.760;2022-10-16T01:13:46;96096.44;;;14.42;71.99
63019;BME280;49105;46.046;10.760;2022-10-16T01:19:12;96105.69;;;14.44;72.10
63019;BME280;49105;46.046;10.760;2022-10-16T01:21:49;96106.22;;;14.46;72.18
63019;BME280;49105;46.046;10.760;2022-10-16T01:24:39;96097.94;;;14.48;71.94
63019;BME280;49105;46.046;10.760;2022-10-16T01:27:29;96098.97;;;14.52;71.65
63019;BME280;49105;46.046;10.760;2022-10-16T01:32:39;96107.72;;;14.57;71.38
63019;BME280;49105;46.046;10.760;2022-10-16T01:38:10;96109.06;;;14.55;71.94
63019;BME280;49105;46.046;10.760;2022-10-16T01:40:39;96103.25;;;14.53;71.69
63019;BME280;49105;46.046;10.760;2022-10-16T01:43:22;96105.91;;;14.53;71.62
63019;BME280;49105;46.046;10.760;2022-10-16T01:45:49;96111.81;;;14.50;71.88
63019;BME280;49105;46.046;10.760;2022-10-16T01:48:18;96113.69;;;14.44;71.81
63019;BME280;49105;46.046;10.760;2022-10-16T01:51:07;96115.56;;;14.44;71.95
63019;BME280;49105;46.046;10.760;2022-10-16T01:53:34;96121.13;;;14.47;72.02
63019;BME280;49105;46.046;10.760;2022-10-16T01:56:11;96117.66;;;14.47;72.31
63019;BME280;49105;46.046;10.760;2022-10-16T02:02:01;96107.25;;;14.50;71.67
63019;BME280;49105;46.046;10.760;2022-10-16T02:04:45;96118.94;;;14.54;71.77
63019;BME280;49105;46.046;10.760;2022-10-16T02:07:15;96119.78;;;14.50;71.47
63019;BME280;49105;46.046;10.760;2022-10-16T02:09:47;96123.13;;;14.36;71.73
63019;BME280;49105;46.046;10.760;2022-10-16T02:12:29;96125.25;;;14.34;72.06
63019;BME280;49105;46.046;10.760;2022-10-16T02:14:56;96113.59;;;14.30;72.62
63019;BME280;49105;46.046;10.760;2022-10-16T02:17:26;96117.63;;;14.28;72.01
63019;BME280;49105;46.046;10.760;2022-10-16T02:19:59;96114.75;;;14.24;72.42
63019;BME280;49105;46.046;10.760;2022-10-16T02:22:38;96114.22;;;14.22;72.68
63019;BME280;49105;46.046;10.760;2022-10-16T02:30:40;96115.75;;;14.28;72.29
63019;BME280;49105;46.046;10.760;2022-10-16T02:33:10;96114.16;;;14.27;72.62
63019;BME280;49105;46.046;10.760;2022-10-16T02:35:46;96114.16;;;14.27;72.69
63019;BME280;49105;46.046;10.760;2022-10-16T02:38:15;96117.91;;;14.26;72.67
63019;BME280;49105;46.046;10.760;2022-10-16T02:40:41;96114.16;;;14.27;72.55
63019;BME280;49105;46.046;10.760;2022-10-16T02:43:18;96121.56;;;14.30;72.71
63019;BME280;49105;46.046;10.760;2022-10-16T02:45:44;96119.16;;;14.34;72.68
63019;BME280;49105;46.046;10.760;2022-10-16T02:48:16;96118.69;;;14.27;72.46
63019;BME280;49105;46.046;10.760;2022-10-16T02:50:42;96120.69;;;14.16;72.85
63019;BME280;49105;46.046;10.760;2022-10-16T02:53:14;96126.28;;;14.14;72.98
63019;BME280;49105;46.046;10.760;2022-10-16T02:55:48;96124.41;;;14.15;72.63
63019;BME280;49105;46.046;10.760;2022-10-16T02:58:14;96127.88;;;14.15;73.00
63019;BME280;49105;46.046;10.760;2022-10-16T03:00:39;96129.47;;;14.17;72.88
63019;BME280;49105;46.046;10.760;2022-10-16T03:03:13;96135.25;;;14.24;72.72
63019;BME280;49105;46.046;10.760;2022-10-16T03:05:39;96131.78;;;14.23;72.67
63019;BME280;49105;46.046;10.760;2022-10-16T03:08:23;96131.72;;;14.28;72.66
63019;BME280;49105;46.046;10.760;2022-10-16T03:11:02;96132.00;;;14.27;72.38
63019;BME280;49105;46.046;10.760;2022-10-16T03:13:34;96138.13;;;14.27;72.50
63019;BME280;49105;46.046;10.760;2022-10-16T03:16:08;96143.19;;;14.29;72.70
63019;BME280;49105;46.046;10.760;2022-10-16T03:18:43;96138.97;;;14.23;72.75
63019;BME280;49105;46.046;10.760;2022-10-16T03:21:08;96140.91;;;14.17;72.58
63019;BME280;49105;46.046;10.760;2022-10-16T03:23:40;96139.88;;;14.13;73.01
63019;BME280;49105;46.046;10.760;2022-10-16T03:26:05;96137.28;;;14.08;72.69
63019;BME280;49105;46.046;10.760;2022-10-16T03:28:31;96128.28;;;14.04;73.25
63019;BME280;49105;46.046;10.760;2022-10-16T03:31:02;96142.59;;;14.08;73.10
63019;BME280;49105;46.046;10.760;2022-10-16T03:33:28;96139.34;;;14.11;73.05
63019;BME280;49105;46.046;10.760;2022-10-16T03:35:59;96136.69;;;14.11;73.30
63019;BME280;49105;46.046;10.760;2022-10-16T03:38:25;96137.28;;;14.08;73.16
63019;BME280;49105;46.046;10.760;2022-10-16T03:40:51;96144.72;;;14.06;73.38
63019;BME280;49105;46.046;10.760;2022-10-16T03:43:22;96135.66;;;14.07;72.90
63019;BME280;49105;46.046;10.760;2022-10-16T03:46:00;96142.31;;;14.09;73.43
63019;BME280;49105;46.046;10.760;2022-10-16T03:48:29;96151.59;;;14.12;72.66
63019;BME280;49105;46.046;10.760;2022-10-16T03:50:54;96142.47;;;14.18;72.91
63019;BME280;49105;46.046;10.760;2022-10-16T03:53:20;96140.91;;;14.17;73.04
63019;BME280;49105;46.046;10.760;2022-10-16T03:55:55;96142.47;;;14.18;72.55
63019;BME280;49105;46.046;10.760;2022-10-16T03:58:20;96148.31;;;14.20;72.90
63019;BME280;49105;46.046;10.760;2022-10-16T04:00:46;96140.06;;;14.22;72.40
63019;BME280;49105;46.046;10.760;2022-10-16T04:03:17;96141.91;;;14.21;72.45
63019;BME280;49105;46.046;10.760;2022-10-16T04:05:50;96139.81;;;14.18;73.02
63019;BME280;49105;46.046;10.760;2022-10-16T04:08:22;96145.69;;;14.15;72.87
63019;BME280;49105;46.046;10.760;2022-10-16T04:10:54;96148.94;;;14.12;72.68
63019;BME280;49105;46.046;10.760;2022-10-16T04:13:19;96152.66;;;14.11;72.93
63019;BME280;49105;46.046;10.760;2022-10-16T04:15:54;96150.28;;;14.09;72.66
63019;BME280;49105;46.046;10.760;2022-10-16T04:18:26;96150.84;;;14.06;72.68
63019;BME280;49105;46.046;10.760;2022-10-16T04:21:05;96155.94;;;14.03;72.63
63019;BME280;49105;46.046;10.760;2022-10-16T04:23:37;96155.50;;;13.96;72.73
63019;BME280;49105;46.046;10.760;2022-10-16T04:26:12;96155.53;;;13.90;73.05
63019;BME280;49105;46.046;10.760;2022-10-16T04:28:49;96158.75;;;13.87;73.55
63019;BME280;49105;46.046;10.760;2022-10-16T04:31:21;96164.63;;;13.84;73.43
63019;BME280;49105;46.046;10.760;2022-10-16T04:33:47;96166.78;;;13.82;73.10
63019;BME280;49105;46.046;10.760;2022-10-16T04:36:13;96172.44;;;13.76;72.61
63019;BME280;49105;46.046;10.760;2022-10-16T04:38:38;96169.03;;;13.70;73.30
63019;BME280;49105;46.046;10.760;2022-10-16T04:41:16;96170.78;;;13.51;73.29
63019;BME280;49105;46.046;10.760;2022-10-16T04:43:42;96170.28;;;13.44;73.83
63019;BME280;49105;46.046;10.760;2022-10-16T04:46:17;96175.09;;;13.36;74.37
63019;BME280;49105;46.046;10.760;2022-10-16T04:48:51;96179.94;;;13.34;73.70
63019;BME280;49105;46.046;10.760;2022-10-16T04:51:23;96177.25;;;13.34;74.01
63019;BME280;49105;46.046;10.760;2022-10-16T04:54:01;96181.00;;;13.33;73.35
63019;BME280;49105;46.046;10.760;2022-10-16T04:56:36;96176.72;;;13.32;74.13
63019;BME280;49105;46.046;10.760;2022-10-16T04:59:08;96181.50;;;13.35;73.96
63019;BME280;49105;46.046;10.760;2022-10-16T05:01:34;96186.03;;;13.35;73.88
63019;BME280;49105;46.046;10.760;2022-10-16T05:03:59;96180.19;;;13.33;73.93
63019;BME280;49105;46.046;10.760;2022-10-16T05:09:46;96187.91;;;13.34;73.88
63019;BME280;49105;46.046;10.760;2022-10-16T05:12:18;96186.56;;;13.32;73.48
63019;BME280;49105;46.046;10.760;2022-10-16T05:14:44;96191.63;;;13.33;73.40
63019;BME280;49105;46.046;10.760;2022-10-16T05:17:12;96192.13;;;13.35;73.71
63019;BME280;49105;46.046;10.760;2022-10-16T05:19:38;96184.97;;;13.36;74.17
63019;BME280;49105;46.046;10.760;2022-10-16T05:22:03;96189.47;;;13.35;73.98
63019;BME280;49105;46.046;10.760;2022-10-16T05:24:32;96191.84;;;13.37;74.36
63019;BME280;49105;46.046;10.760;2022-10-16T05:27:10;96200.91;;;13.36;74.08
63019;BME280;49105;46.046;10.760;2022-10-16T05:29:47;96202.28;;;13.33;73.87
63019;BME280;49105;46.046;10.760;2022-10-16T05:32:19;96200.16;;;13.30;73.92
63019;BME280;49105;46.046;10.760;2022-10-16T05:34:45;96202.28;;;13.33;74.12
63019;BME280;49105;46.046;10.760;2022-10-16T05:37:20;96209.16;;;13.34;74.06
63019;BME280;49105;46.046;10.760;2022-10-16T05:39:45;96207.81;;;13.37;73.80
63019;BME280;49105;46.046;10.760;2022-10-16T05:42:12;96210.44;;;13.42;74.03
63019;BME280;49105;46.046;10.760;2022-10-16T05:44:37;96211.19;;;13.48;73.76
63019;BME280;49105;46.046;10.760;2022-10-16T05:47:13;96208.50;;;13.53;73.88
63019;BME280;49105;46.046;10.760;2022-10-16T05:49:39;96213.56;;;13.54;73.65
63019;BME280;49105;46.046;10.760;2022-10-16T05:52:05;96218.59;;;13.56;74.17
63019;BME280;49105;46.046;10.760;2022-10-16T05:54:33;96224.69;;;13.56;73.76
63019;BME280;49105;46.046;10.760;2022-10-16T05:56:58;96223.91;;;13.56;73.53
63019;BME280;49105;46.046;10.760;2022-10-16T05:59:40;96225.22;;;13.58;73.87
63019;BME280;49105;46.046;10.760;2022-10-16T06:02:12;96230.81;;;13.62;73.72
63019;BME280;49105;46.046;10.760;2022-10-16T06:04:44;96229.72;;;13.63;73.25
63019;BME280;49105;46.046;10.760;2022-10-16T06:07:19;96236.66;;;13.59;73.13
63019;BME280;49105;46.046;10.760;2022-10-16T06:09:49;96232.19;;;13.49;73.82
63019;BME280;49105;46.046;10.760;2022-10-16T06:12:21;96239.91;;;13.51;73.93
63019;BME280;49105;46.046;10.760;2022-10-16T06:14:47;96240.16;;;13.49;74.36
63019;BME280;49105;46.046;10.760;2022-10-16T06:17:21;96246.81;;;13.52;73.89
63019;BME280;49105;46.046;10.760;2022-10-16T06:19:59;96243.31;;;13.56;73.82
63019;BME280;49105;46.046;10.760;2022-10-16T06:22:24;96245.41;;;13.64;74.31
63019;BME280;49105;46.046;10.760;2022-10-16T06:24:50;96249.88;;;13.69;73.85
63019;BME280;49105;46.046;10.760;2022-10-16T06:27:18;96258.09;;;13.73;73.91
63019;BME280;49105;46.046;10.760;2022-10-16T06:29:44;96269.28;;;13.75;73.63
63019;BME280;49105;46.046;10.760;2022-10-16T06:32:10;96268.75;;;13.73;73.23
63019;BME280;49105;46.046;10.760;2022-10-16T06:34:41;96272.25;;;13.68;74.06
63019;BME280;49105;46.046;10.760;2022-10-16T06:42:57;96276.88;;;13.86;73.33
63019;BME280;49105;46.046;10.760;2022-10-16T06:45:29;96284.06;;;13.91;73.84
63019;BME280;49105;46.046;10.760;2022-10-16T06:48:03;96282.16;;;13.97;73.56
63019;BME280;49105;46.046;10.760;2022-10-16T06:50:29;96283.47;;;13.99;73.77
63019;BME280;49105;46.046;10.760;2022-10-16T06:52:54;96285.06;;;14.00;73.79
63019;BME280;49105;46.046;10.760;2022-10-16T06:55:28;96284.75;;;14.02;73.89
63019;BME280;49105;46.046;10.760;2022-10-16T06:57:54;96287.44;;;14.02;73.63
63019;BME280;49105;46.046;10.760;2022-10-16T07:00:28;96292.75;;;14.02;74.01
63019;BME280;49105;46.046;10.760;2022-10-16T07:02:55;96293.00;;;14.05;73.86
63019;BME280;49105;46.046;10.760;2022-10-16T07:05:30;96290.53;;;14.14;73.91
63019;BME280;49105;46.046;10.760;2022-10-16T07:08:08;96299.50;;;14.23;73.31
63019;BME280;49105;46.046;10.760;2022-10-16T07:10:34;96303.72;;;14.29;73.16
63019;BME280;49105;46.046;10.760;2022-10-16T07:13:04;96302.88;;;14.34;73.08
63019;BME280;49105;46.046;10.760;2022-10-16T07:15:40;96303.34;;;14.41;73.26
63019;BME280;49105;46.046;10.760;2022-10-16T07:18:15;96307.03;;;14.50;72.75
63019;BME280;49105;46.046;10.760;2022-10-16T07:20:40;96307.19;;;14.59;72.84
63019;BME280;49105;46.046;10.760;2022-10-16T07:23:15;96315.66;;;14.66;72.75
63019;BME280;49105;46.046;10.760;2022-10-16T07:25:40;96319.91;;;14.67;72.58
63019;BME280;49105;46.046;10.760;2022-10-16T07:28:06;96323.66;;;14.66;72.69
63019;BME280;49105;46.046;10.760;2022-10-16T07:30:38;96336.44;;;14.69;72.73
63019;BME280;49105;46.046;10.760;2022-10-16T07:33:09;96329.47;;;14.73;72.60
63019;BME280;49105;46.046;10.760;2022-10-16T07:35:34;96335.81;;;14.77;72.56
63019;BME280;49105;46.046;10.760;2022-10-16T07:38:03;96337.03;;;14.85;72.28
63019;BME280;49105;46.046;10.760;2022-10-16T07:40:29;96336.50;;;14.88;72.22
63019;BME280;49105;46.046;10.760;2022-10-16T07:42:55;96346.03;;;14.94;72.08
63019;BME280;49105;46.046;10.760;2022-10-16T07:45:24;96337.19;;;14.99;72.38
63019;BME280;49105;46.046;10.760;2022-10-16T07:47:49;96335.81;;;15.01;72.00
63019;BME280;49105;46.046;10.760;2022-10-16T07:50:15;96339.72;;;15.09;72.02
63019;BME280;49105;46.046;10.760;2022-10-16T07:52:49;96338.53;;;15.20;71.82
63019;BME280;49105;46.046;10.760;2022-10-16T07:55:15;96344.34;;;15.27;71.69
63019;BME280;49105;46.046;10.760;2022-10-16T07:57:49;96345.59;;;15.35;71.58
63019;BME280;49105;46.046;10.760;2022-10-16T08:00:21;96343.97;;;15.34;71.40
63019;BME280;49105;46.046;10.760;2022-10-16T08:02:46;96348.25;;;15.35;71.55
63019;BME280;49105;46.046;10.760;2022-10-16T08:05:19;96349.84;;;15.36;71.58
63019;BME280;49105;46.046;10.760;2022-10-16T08:07:55;96356.41;;;15.44;71.50
63019;BME280;49105;46.046;10.760;2022-10-16T08:10:33;96355.19;;;15.55;71.38
63019;BME280;49105;46.046;10.760;2022-10-16T08:12:59;96361.53;;;15.59;71.15
63019;BME280;49105;46.046;10.760;2022-10-16T08:15:27;96356.72;;;15.61;71.04
63019;BME280;49105;46.046;10.760;2022-10-16T08:18:05;96353.28;;;15.60;71.02
63019;BME280;49105;46.046;10.760;2022-10-16T08:20:41;96351.34;;;15.66;70.87
63019;BME280;49105;46.046;10.760;2022-10-16T08:23:13;96355.59;;;15.67;70.89
63019;BME280;49105;46.046;10.760;2022-10-16T08:25:44;96351.00;;;15.73;70.62
63019;BME280;49105;46.046;10.760;2022-10-16T08:28:10;96349.84;;;15.79;70.67
63019;BME280;49105;46.046;10.760;2022-10-16T08:30:42;96352.16;;;15.85;70.27
63019;BME280;49105;46.046;10.760;2022-10-16T08:33:15;96350.72;;;15.93;70.16
63019;BME280;49105;46.046;10.760;2022-10-16T08:35:41;96346.41;;;15.97;70.05
63019;BME280;49105;46.046;10.760;2022-10-16T08:38:09;96346.00;;;16.04;69.69
63019;BME280;49105;46.046;10.760;2022-10-16T08:40:42;96360.69;;;16.06;69.61
63019;BME280;49105;46.046;10.760;2022-10-16T08:43:29;96356.56;;;16.14;69.61
63019;BME280;49105;46.046;10.760;2022-10-16T08:46:15;96357.25;;;16.20;69.57
63019;BME280;49105;46.046;10.760;2022-10-16T08:48:51;96356.38;;;16.24;69.05
63019;BME280;49105;46.046;10.760;2022-10-16T08:51:21;96356.69;;;16.23;69.02
63019;BME280;49105;46.046;10.760;2022-10-16T08:53:59;96353.81;;;16.19;69.11
63019;BME280;49105;46.046;10.760;2022-10-16T08:56:46;96345.31;;;16.17;68.76
63019;BME280;49105;46.046;10.760;2022-10-16T08:59:21;96346.59;;;16.20;68.83
63019;BME280;49105;46.046;10.760;2022-10-16T09:01:49;96353.44;;;16.26;68.92
63019;BME280;49105;46.046;10.760;2022-10-16T09:04:42;96347.50;;;16.29;68.43
63019;BME280;49105;46.046;10.760;2022-10-16T09:07:36;96342.09;;;16.34;68.47
63019;BME280;49105;46.046;10.760;2022-10-16T09:12:48;96335.69;;;16.49;68.22
63019;BME280;49105;46.046;10.760;2022-10-16T09:21:28;96337.56;;;16.34;67.73
63019;BME280;49105;46.046;10.760;2022-10-16T09:24:25;96332.22;;;16.34;67.91
63019;BME280;49105;46.046;10.760;2022-10-16T09:26:52;96329.31;;;16.31;67.80
63019;BME280;49105;46.046;10.760;2022-10-16T09:29:23;96331.00;;;16.27;68.01
63019;BME280;49105;46.046;10.760;2022-10-16T09:31:50;96327.88;;;16.20;67.99
63019;BME280;49105;46.046;10.760;2022-10-16T09:34:32;96330.34;;;16.16;67.97
63019;BME280;49105;46.046;10.760;2022-10-16T09:37:13;96327.09;;;16.19;68.15
63019;BME280;49105;46.046;10.760;2022-10-16T09:39:51;96329.63;;;16.29;68.26
63019;BME280;49105;46.046;10.760;2022-10-16T09:42:22;96333.13;;;16.44;67.69
63019;BME280;49105;46.046;10.760;2022-10-16T09:44:52;96326.00;;;16.53;67.75
63019;BME280;49105;46.046;10.760;2022-10-16T09:50:43;96331.00;;;16.59;67.11
63019;BME280;49105;46.046;10.760;2022-10-16T09:53:12;96324.25;;;16.62;67.19
63019;BME280;49105;46.046;10.760;2022-10-16T09:55:52;96322.88;;;16.65;66.87
63019;BME280;49105;46.046;10.760;2022-10-16T09:58:22;96316.16;;;16.67;66.91
63019;BME280;49105;46.046;10.760;2022-10-16T10:00:53;96308.03;;;16.72;66.84
63019;BME280;49105;46.046;10.760;2022-10-16T10:03:39;96310.66;;;16.77;66.92
63019;BME280;49105;46.046;10.760;2022-10-16T10:06:30;96309.97;;;16.85;66.51
63019;BME280;49105;46.046;10.760;2022-10-16T10:14:38;96305.31;;;17.05;65.60
63019;BME280;49105;46.046;10.760;2022-10-16T10:22:39;96302.16;;;17.30;65.29
63019;BME280;49105;46.046;10.760;2022-10-16T10:25:26;96292.44;;;17.34;65.09
63019;BME280;49105;46.046;10.760;2022-10-16T10:28:43;96286.50;;;17.38;64.50
63019;BME280;49105;46.046;10.760;2022-10-16T10:36:41;96275.75;;;17.51;63.89
63019;BME280;49105;46.046;10.760;2022-10-16T10:55:40;96248.28;;;17.96;61.97
63019;BME280;49105;46.046;10.760;2022-10-16T11:00:57;96251.38;;;18.12;61.48
63019;BME280;49105;46.046;10.760;2022-10-16T11:06:19;96242.88;;;18.41;60.52
63019;BME280;49105;46.046;10.760;2022-10-16T11:09:14;96240.56;;;18.48;59.83
63019;BME280;49105;46.046;10.760;2022-10-16T11:11:45;96245.97;;;18.56;59.87
63019;BME280;49105;46.046;10.760;2022-10-16T11:14:41;96239.66;;;18.61;59.51
63019;BME280;49105;46.046;10.760;2022-10-16T11:17:22;96237.34;;;18.68;59.51
63019;BME280;49105;46.046;10.760;2022-10-16T11:23:16;96236.31;;;18.87;58.28
63019;BME280;49105;46.046;10.760;2022-10-16T11:25:50;96226.22;;;18.92;58.09
63019;BME280;49105;46.046;10.760;2022-10-16T11:28:27;96228.47;;;18.99;57.41
63019;BME280;49105;46.046;10.760;2022-10-16T11:39:31;96229.47;;;19.29;56.32
63019;BME280;49105;46.046;10.760;2022-10-16T11:47:26;96216.06;;;19.38;54.62
63019;BME280;49105;46.046;10.760;2022-10-16T11:49:59;96207.22;;;19.37;53.62
63019;BME280;49105;46.046;10.760;2022-10-16T11:52:36;96208.97;;;19.42;52.11
63019;BME280;49105;46.046;10.760;2022-10-16T11:55:24;96205.03;;;19.48;51.75
63019;BME280;49105;46.046;10.760;2022-10-16T11:58:26;96205.34;;;19.55;51.26
63019;BME280;49105;46.046;10.760;2022-10-16T12:09:34;96190.69;;;19.70;50.39
63019;BME280;49105;46.046;10.760;2022-10-16T12:12:03;96188.94;;;19.74;50.91
63019;BME280;49105;46.046;10.760;2022-10-16T12:14:39;96200.63;;;19.78;50.15
63019;BME280;49105;46.046;10.760;2022-10-16T12:20:22;96188.91;;;19.82;49.17
63019;BME280;49105;46.046;10.760;2022-10-16T12:22:53;96188.91;;;19.82;49.29
63019;BME280;49105;46.046;10.760;2022-10-16T12:28:19;96189.41;;;19.93;50.37
63019;BME280;49105;46.046;10.760;2022-10-16T12:30:54;96191.75;;;19.95;49.89
63019;BME280;49105;46.046;10.760;2022-10-16T12:33:29;96181.78;;;19.95;49.25
63019;BME280;49105;46.046;10.760;2022-10-16T12:36:05;96194.41;;;20.03;49.79
63019;BME280;49105;46.046;10.760;2022-10-16T12:38:37;96191.09;;;20.06;49.85
63019;BME280;49105;46.046;10.760;2022-10-16T12:44:01;96196.81;;;20.05;49.59
63019;BME280;49105;46.046;10.760;2022-10-16T12:55:01;96205.47;;;20.19;49.55
63019;BME280;49105;46.046;10.760;2022-10-16T12:57:57;96200.75;;;20.16;49.42
63019;BME280;49105;46.046;10.760;2022-10-16T13:00:56;96207.06;;;20.20;50.05
63019;BME280;49105;46.046;10.760;2022-10-16T13:03:48;96207.06;;;20.20;49.54
63019;BME280;49105;46.046;10.760;2022-10-16T13:06:36;96200.22;;;20.23;49.87
63019;BME280;49105;46.046;10.760;2022-10-16T13:18:22;96214.47;;;20.23;48.86
63019;BME280;49105;46.046;10.760;2022-10-16T13:23:26;96214.47;;;20.23;48.85
63019;BME280;49105;46.046;10.760;2022-10-16T13:28:45;96216.06;;;20.24;49.13
63019;BME280;49105;46.046;10.760;2022-10-16T13:31:23;96227.25;;;20.26;49.37
63019;BME280;49105;46.046;10.760;2022-10-16T13:33:52;96228.22;;;20.22;49.26
63019;BME280;49105;46.046;10.760;2022-10-16T13:36:34;96232.03;;;20.21;49.35
63019;BME280;49105;46.046;10.760;2022-10-16T13:39:20;96229.50;;;20.16;49.34
63019;BME280;49105;46.046;10.760;2022-10-16T13:42:09;96234.06;;;20.15;50.03
63019;BME280;49105;46.046;10.760;2022-10-16T13:44:55;96233.13;;;20.11;49.80
63019;BME280;49105;46.046;10.760;2022-10-16T13:47:29;96236.94;;;20.10;50.00
63019;BME280;49105;46.046;10.760;2022-10-16T13:50:16;96237.28;;;20.08;50.06
63019;BME280;49105;46.046;10.760;2022-10-16T13:52:45;96237.56;;;20.07;50.08
63019;BME280;49105;46.046;10.760;2022-10-16T13:55:18;96248.16;;;20.03;50.18
63019;BME280;49105;46.046;10.760;2022-10-16T13:57:46;96250.22;;;19.98;50.29
63019;BME280;49105;46.046;10.760;2022-10-16T14:00:26;96247.72;;;19.93;50.36
63019;BME280;49105;46.046;10.760;2022-10-16T14:03:13;96247.38;;;19.86;50.54
63019;BME280;49105;46.046;10.760;2022-10-16T14:05:52;96256.84;;;19.83;50.66
63019;BME280;49105;46.046;10.760;2022-10-16T14:08:18;96248.81;;;19.83;50.85
63019;BME280;49105;46.046;10.760;2022-10-16T14:11:04;96246.94;;;19.83;50.94
63019;BME280;49105;46.046;10.760;2022-10-16T14:13:43;96248.66;;;19.79;50.74
63019;BME280;49105;46.046;10.760;2022-10-16T14:16:25;96253.09;;;19.75;51.05
63019;BME280;49105;46.046;10.760;2022-10-16T14:19:01;96255.91;;;19.70;51.28
63019;BME280;49105;46.046;10.760;2022-10-16T14:21:28;96256.06;;;19.65;51.60
63019;BME280;49105;46.046;10.760;2022-10-16T14:23:55;96248.94;;;19.61;51.66
63019;BME280;49105;46.046;10.760;2022-10-16T14:26:52;96253.53;;;19.60;51.57
63019;BME280;49105;46.046;10.760;2022-10-16T14:29:24;96256.84;;;19.57;51.64
63019;BME280;49105;46.046;10.760;2022-10-16T14:31:57;96254.31;;;19.52;51.97
63019;BME280;49105;46.046;10.760;2022-10-16T14:34:30;96259.50;;;19.48;52.12
63019;BME280;49105;46.046;10.760;2022-10-16T14:37:14;96272.31;;;19.43;52.37
63019;BME280;49105;46.046;10.760;2022-10-16T14:39:50;96257.13;;;19.38;52.54
63019;BME280;49105;46.046;10.760;2022-10-16T14:42:24;96261.84;;;19.32;52.56
63019;BME280;49105;46.046;10.760;2022-10-16T14:44:53;96259.78;;;19.29;52.85
63019;BME280;49105;46.046;10.760;2022-10-16T14:47:25;96266.25;;;19.28;52.85
63019;BME280;49105;46.046;10.760;2022-10-16T14:49:58;96266.88;;;19.25;52.96
63019;BME280;49105;46.046;10.760;2022-10-16T14:52:24;96272.41;;;19.20;53.07
63019;BME280;49105;46.046;10.760;2022-10-16T14:54:56;96278.53;;;19.12;53.32
63019;BME280;49105;46.046;10.760;2022-10-16T14:57:36;96278.19;;;19.05;53.45
63019;BME280;49105;46.046;10.760;2022-10-16T15:00:23;96281.34;;;18.98;53.85
63019;BME280;49105;46.046;10.760;2022-10-16T15:03:01;96282.28;;;18.94;54.13
63019;BME280;49105;46.046;10.760;2022-10-16T15:05:27;96282.88;;;18.91;54.04
63019;BME280;49105;46.046;10.760;2022-10-16T15:08:02;96283.50;;;18.88;54.16
63019;BME280;49105;46.046;10.760;2022-10-16T15:10:28;96290.47;;;18.89;54.23
63019;BME280;49105;46.046;10.760;2022-10-16T15:12:54;96286.97;;;18.88;54.26
63019;BME280;49105;46.046;10.760;2022-10-16T15:15:35;96293.44;;;18.87;54.33
63019;BME280;49105;46.046;10.760;2022-10-16T15:18:08;96301.78;;;18.86;54.39
63019;BME280;49105;46.046;10.760;2022-10-16T15:20:43;96298.16;;;18.81;54.57
63019;BME280;49105;46.046;10.760;2022-10-16T15:23:21;96306.03;;;18.78;54.59
63019;BME280;49105;46.046;10.760;2022-10-16T15:25:56;96329.97;;;18.74;54.67
63019;BME280;49105;46.046;10.760;2022-10-16T15:28:31;96312.69;;;18.67;54.83
63019;BME280;49105;46.046;10.760;2022-10-16T15:30:57;96320.56;;;18.63;55.55
63019;BME280;49105;46.046;10.760;2022-10-16T15:33:30;96308.88;;;18.59;55.91
63019;BME280;49105;46.046;10.760;2022-10-16T15:36:02;96314.56;;;18.57;55.80
63019;BME280;49105;46.046;10.760;2022-10-16T15:38:37;96320.84;;;18.53;56.91
63019;BME280;49105;46.046;10.760;2022-10-16T15:41:09;96317.47;;;18.47;57.18